Hosford, FL (32334)

6:51 PM EDT on August 03, 2015 (GMT -0400)
W.R. Tolar K-8 School WeatherSTEM | | Change Station
CLOSE
Current Station
Personal Weather Station
Location: Bristol, FL
Elevation: 154 ft
Nearby Weather Stations

Elev 154 ft 30.40 °N, 84.98 °W | Updated 11 minutes ago

Mostly Cloudy
Mostly Cloudy
77.4 °F
Feels Like 79 °F
N
9.0
Wind Variable Wind from WSW
Gusts 16.0 mph

Today
High -- | Low -- °F
--% Chance of Precip.
Yesterday
High -- | Low -- °F
Precip. -- in
6:58 AM 8:31 PM
Waning Gibbous, 83% visible
Pressure 29.86 in
Visibility 10.0 miles
Clouds Few 5000 ft
Scattered Clouds 10000 ft
Scattered Clouds 25000 ft
Heat Index 79 °F
Dew Point 74 °F
Humidity 89%
Rainfall 0.18 in
Snow Depth Not available.
UV 0.0 out of 12
Pollen 3.70 out of 12
Air Quality Not available.
Flu Activity Not available.
METAR KTLH 032153Z 33007KT 10SM FEW050 SCT100 SCT250 36/23 A2986 RMK AO2 SLP109 CB DSNT S T03610233

More Conditions Fewer Conditions

Pressure 29.86 in
Visibility 10.0 miles
Clouds Few 5000 ft
Scattered Clouds 10000 ft
Scattered Clouds 25000 ft
Heat Index 79 °F
Dew Point 74 °F
Humidity 89%
Rainfall 0.18 in
Snow Depth Not available.
UV 0.0 out of 12
Pollen 3.70 out of 12
Air Quality Not available.
Flu Activity Not available.
METAR KTLH 032153Z 33007KT 10SM FEW050 SCT100 SCT250 36/23 A2986 RMK AO2 SLP109 CB DSNT S T03610233

More Conditions Fewer Conditions

10-Day Weather Forecast

×

Almanac

Astronomy

Aug. 03, 2015 Rise Set
Actual Time
Civil Twilight
Nautical Twilight
Astronomical Twilight
Moon
Length of Visible Light
Length of Day
Tomorrow will be .
, % of the Moon is Illuminated

Today's Extremes

State Highs State Lows

Community

WunderPhotos

Upload Photos

1,843,785 photos uploaded!

WunderBlogs® & News

Nearby

Air Quality

  Air Quality AQ Index Pollutant
Not available.

Snow Depth

Station Depth Elevation

Earthquake Activity

City Distance Mag. Time & Date
Minimum magnitude displayed is 2.5.

Coastal Water Temperatures

Place Temperature

Stations

Nearby Weather Stations

Station Location Temp. Windchill Dew Point Humidity Wind Precip. Elev Updated Type